createdAt,value
2023-02-01T00:00:48.854Z,2.65
2023-02-01T00:03:53.561Z,2.80
2023-02-01T00:06:58.114Z,2.60
2023-02-01T00:10:04.281Z,2.83
2023-02-01T00:13:08.805Z,2.70
2023-02-01T00:16:18.910Z,2.40
2023-02-01T00:19:23.593Z,2.33
2023-02-01T00:22:28.138Z,2.92
2023-02-01T00:25:32.644Z,2.40
2023-02-01T00:28:37.170Z,2.30
2023-02-01T00:31:41.747Z,2.25
2023-02-01T00:34:46.245Z,2.42
2023-02-01T00:37:50.815Z,3.03
2023-02-01T00:41:02.303Z,2.38
2023-02-01T00:44:06.887Z,2.47
2023-02-01T00:47:11.401Z,2.65
2023-02-01T00:50:16.453Z,2.20
2023-02-01T00:53:22.753Z,2.25
2023-02-01T00:56:30.241Z,2.53
2023-02-01T00:59:34.762Z,2.38
2023-02-01T01:02:39.257Z,2.42
2023-02-01T01:05:48.216Z,2.15
2023-02-01T01:08:54.363Z,2.90
2023-02-01T01:12:03.344Z,2.10
2023-02-01T01:15:09.642Z,2.67
2023-02-01T01:18:14.153Z,2.80
2023-02-01T01:21:22.077Z,3.75
2023-02-01T01:24:26.932Z,2.70
2023-02-01T01:27:31.388Z,2.25
2023-02-01T01:30:36.095Z,2.35
2023-02-01T01:33:41.908Z,2.40
2023-02-01T01:36:46.685Z,2.75
2023-02-01T01:39:51.167Z,2.65
2023-02-01T01:42:56.630Z,2.67
2023-02-01T01:46:01.352Z,3.13
2023-02-01T01:49:18.362Z,3.03
2023-02-01T01:52:23.809Z,3.08
2023-02-01T01:55:32.593Z,3.05
2023-02-01T01:58:37.833Z,2.78
2023-02-01T02:01:43.408Z,2.78
2023-02-01T02:04:49.089Z,3.00
2023-02-01T02:07:58.121Z,2.60
2023-02-01T02:11:02.734Z,3.03
2023-02-01T02:14:10.391Z,2.58
2023-02-01T02:17:37.224Z,2.83
2023-02-01T02:20:47.874Z,2.10
2023-02-01T02:24:11.861Z,3.58
2023-02-01T02:27:34.817Z,3.05
2023-02-01T02:31:16.719Z,3.67
2023-02-01T02:34:33.655Z,2.25
2023-02-01T02:38:02.515Z,3.05
2023-02-01T02:41:06.949Z,2.10
2023-02-01T02:44:44.521Z,3.00
2023-02-01T02:48:10.079Z,2.47
2023-02-01T02:51:47.088Z,2.58
2023-02-01T02:54:55.646Z,3.08
2023-02-01T02:58:19.163Z,2.90
2023-02-01T03:01:42.810Z,2.67
2023-02-01T03:04:47.421Z,2.80
2023-02-01T03:08:03.103Z,2.40
2023-02-01T03:11:11.526Z,2.90
2023-02-01T03:14:22.213Z,2.55
2023-02-01T03:17:44.315Z,3.08
2023-02-01T03:20:53.401Z,3.08
2023-02-01T03:24:03.939Z,2.78
2023-02-01T03:27:19.561Z,2.28
2023-02-01T03:30:35.601Z,2.40
2023-02-01T03:33:40.879Z,3.05
2023-02-01T03:36:52.905Z,2.65
2023-02-01T03:40:12.479Z,2.15
2023-02-01T03:43:19.904Z,2.78
2023-02-01T03:46:38.418Z,2.53
2023-02-01T03:49:45.768Z,2.45
2023-02-01T03:53:25.428Z,2.88
2023-02-01T03:56:31.540Z,2.75
2023-02-01T03:59:41.797Z,2.58
2023-02-01T04:02:46.544Z,2.38
2023-02-01T04:05:52.433Z,2.60
2023-02-01T04:08:58.557Z,2.47
2023-02-01T04:12:03.365Z,2.75
2023-02-01T04:15:08.508Z,2.80
2023-02-01T04:18:13.078Z,2.10
2023-02-01T04:21:18.206Z,2.78
2023-02-01T04:24:22.890Z,2.47
2023-02-01T04:27:27.619Z,2.40
2023-02-01T04:30:32.249Z,2.67
2023-02-01T04:33:36.865Z,2.67
2023-02-01T04:36:42.919Z,2.92
2023-02-01T04:39:47.404Z,1.90
2023-02-01T04:42:52.138Z,2.42
2023-02-01T04:45:56.716Z,2.30
2023-02-01T04:49:01.726Z,2.53
2023-02-01T04:52:06.266Z,3.00
2023-02-01T04:55:10.904Z,2.78
2023-02-01T04:58:15.388Z,2.95
2023-02-01T05:01:19.972Z,2.50
2023-02-01T05:04:24.724Z,2.63
2023-02-01T05:07:29.260Z,3.10
2023-02-01T05:10:33.805Z,3.28
2023-02-01T05:13:50.141Z,2.45
2023-02-01T05:16:54.755Z,3.05
2023-02-01T05:19:59.329Z,3.47
2023-02-01T05:23:06.633Z,2.97
2023-02-01T05:26:11.115Z,2.22
2023-02-01T05:29:16.488Z,3.03
2023-02-01T05:32:22.906Z,2.95
2023-02-01T05:35:27.739Z,3.00
2023-02-01T05:38:32.231Z,2.80
2023-02-01T05:41:38.664Z,3.30
2023-02-01T05:44:43.362Z,3.78
2023-02-01T05:47:48.009Z,3.28
2023-02-01T05:50:52.565Z,3.53
2023-02-01T05:53:58.675Z,3.38
2023-02-01T05:57:03.570Z,4.20
2023-02-01T06:00:08.877Z,3.55
2023-02-01T06:03:17.029Z,3.53
2023-02-01T06:06:21.631Z,3.45
2023-02-01T06:09:26.085Z,3.35
2023-02-01T06:12:31.763Z,4.10
2023-02-01T06:15:38.330Z,4.40
2023-02-01T06:18:43.179Z,4.25
2023-02-01T06:21:47.896Z,4.07
2023-02-01T06:24:52.365Z,4.20
2023-02-01T06:28:00.652Z,3.72
2023-02-01T06:31:07.622Z,4.40
2023-02-01T06:34:12.553Z,3.40
2023-02-01T06:37:17.121Z,3.78
2023-02-01T06:40:21.858Z,3.97
2023-02-01T06:43:28.015Z,3.65
2023-02-01T06:46:32.533Z,3.55
2023-02-01T06:49:37.223Z,3.38
2023-02-01T06:52:41.806Z,3.38
2023-02-01T06:55:57.803Z,3.80
2023-02-01T06:59:05.258Z,4.35
2023-02-01T07:02:13.316Z,4.22
2023-02-01T07:05:17.946Z,3.90
2023-02-01T07:08:22.489Z,3.67
2023-02-01T07:11:28.935Z,3.08
2023-02-01T07:14:33.416Z,3.90
2023-02-01T07:17:39.847Z,3.45
2023-02-01T07:20:50.413Z,3.00
2023-02-01T07:23:59.366Z,4.18
2023-02-01T07:27:04.023Z,2.78
2023-02-01T07:30:09.465Z,3.95
2023-02-01T07:33:14.032Z,4.28
2023-02-01T07:36:19.858Z,3.50
2023-02-01T07:39:24.464Z,4.32
2023-02-01T07:42:29.044Z,3.92
2023-02-01T07:45:36.626Z,3.47
2023-02-01T07:48:41.791Z,3.45
2023-02-01T07:51:46.289Z,4.35
2023-02-01T07:54:50.835Z,3.50
2023-02-01T07:57:59.059Z,3.50
2023-02-01T08:01:21.522Z,3.33
2023-02-01T08:04:26.159Z,2.88
2023-02-01T08:07:31.910Z,3.50
2023-02-01T08:10:36.485Z,2.40
2023-02-01T08:13:41.361Z,2.53
2023-02-01T08:16:46.047Z,2.95
2023-02-01T08:19:50.761Z,2.50
2023-02-01T08:22:55.840Z,1.95
2023-02-01T08:26:20.048Z,2.47
2023-02-01T08:29:25.591Z,2.25
2023-02-01T08:32:30.201Z,2.72
2023-02-01T08:35:43.779Z,2.42
2023-02-01T08:38:48.666Z,2.20
2023-02-01T08:42:11.787Z,2.60
2023-02-01T08:48:21.886Z,2.45
2023-02-01T08:51:26.361Z,2.30
2023-02-01T08:54:30.973Z,1.90
2023-02-01T08:57:35.521Z,1.77
2023-02-01T09:00:40.302Z,2.15
2023-02-01T09:03:45.012Z,2.28
2023-02-01T09:06:49.679Z,1.85
2023-02-01T09:09:57.266Z,2.28
2023-02-01T09:13:01.826Z,2.70
2023-02-01T09:16:07.124Z,2.65
2023-02-01T09:19:25.843Z,2.80
2023-02-01T09:22:31.191Z,2.92
2023-02-01T09:25:39.061Z,2.50
2023-02-01T09:28:43.518Z,2.67
2023-02-01T09:32:02.957Z,3.33
2023-02-01T09:35:08.269Z,2.25
2023-02-01T09:38:12.898Z,2.63
2023-02-01T09:41:27.462Z,2.10
2023-02-01T09:44:47.527Z,2.92
2023-02-01T09:47:55.861Z,3.33
2023-02-01T09:51:03.533Z,2.70
2023-02-01T09:54:19.455Z,2.47
2023-02-01T09:57:28.854Z,2.38
2023-02-01T10:00:37.736Z,3.08
2023-02-01T10:03:42.365Z,2.67
2023-02-01T10:07:21.855Z,2.08
2023-02-01T10:10:39.537Z,2.30
2023-02-01T10:14:04.118Z,2.90
2023-02-01T10:17:30.160Z,3.63
2023-02-01T10:20:58.822Z,2.83
2023-02-01T10:24:31.824Z,2.35
2023-02-01T10:27:38.899Z,2.20
2023-02-01T10:30:46.710Z,2.33
2023-02-01T10:33:57.080Z,2.28
2023-02-01T10:37:10.997Z,2.25
2023-02-01T10:40:23.122Z,2.15
2023-02-01T10:43:27.979Z,1.73
2023-02-01T10:46:34.491Z,1.58
2023-02-01T10:49:55.870Z,2.00
2023-02-01T10:53:01.773Z,2.13
2023-02-01T10:56:08.543Z,1.73
2023-02-01T10:59:24.249Z,2.92
2023-02-01T11:02:29.018Z,1.90
2023-02-01T11:05:45.646Z,2.78
2023-02-01T11:08:53.680Z,2.65
2023-02-01T11:11:59.770Z,2.92
2023-02-01T11:15:23.117Z,2.47
2023-02-01T11:18:30.969Z,2.33
2023-02-01T11:21:37.847Z,2.13
2023-02-01T11:24:47.403Z,2.47
2023-02-01T11:27:55.754Z,2.42
2023-02-01T11:31:09.279Z,2.75
2023-02-01T11:34:18.339Z,2.60
2023-02-01T11:37:38.030Z,3.10
2023-02-01T11:40:42.581Z,2.80
2023-02-01T11:44:16.828Z,2.72
2023-02-01T11:47:28.486Z,2.25
2023-02-01T11:50:52.988Z,2.45
2023-02-01T11:54:09.141Z,2.22
2023-02-01T11:57:32.011Z,2.00
2023-02-01T12:01:15.228Z,2.10
2023-02-01T12:04:56.031Z,1.70
2023-02-01T12:08:46.000Z,1.85
2023-02-01T12:12:26.175Z,2.00
2023-02-01T12:15:49.153Z,2.47
2023-02-01T12:22:23.931Z,2.00
2023-02-01T12:25:31.569Z,1.50
2023-02-01T12:28:49.210Z,1.50
2023-02-01T12:32:05.152Z,1.02
2023-02-01T12:35:38.569Z,1.20
2023-02-01T12:39:30.910Z,0.98
2023-02-01T12:42:57.843Z,1.40
2023-02-01T12:46:07.257Z,1.25
2023-02-01T12:49:20.519Z,1.35
2023-02-01T12:52:43.476Z,2.05
2023-02-01T12:55:53.389Z,2.03
2023-02-01T12:59:02.523Z,1.80
2023-02-01T13:02:24.145Z,3.22
2023-02-01T13:05:41.448Z,2.25
2023-02-01T13:08:58.873Z,2.30
2023-02-01T13:12:14.145Z,2.45
2023-02-01T13:15:25.171Z,1.48
2023-02-01T13:18:37.779Z,2.25
2023-02-01T13:21:48.239Z,2.00
2023-02-01T13:24:59.663Z,1.90
2023-02-01T13:28:42.446Z,2.60
2023-02-01T13:31:52.972Z,2.20
2023-02-01T13:35:22.022Z,2.30
2023-02-01T13:39:03.846Z,2.22
2023-02-01T13:42:16.035Z,2.28
2023-02-01T13:45:24.830Z,2.13
2023-02-01T13:48:41.418Z,1.95
2023-02-01T13:51:49.392Z,2.20
2023-02-01T13:55:17.023Z,2.63
2023-02-01T13:58:37.135Z,2.35
2023-02-01T14:01:41.680Z,2.40
2023-02-01T14:04:49.744Z,2.13
2023-02-01T14:08:03.081Z,2.30
2023-02-01T14:11:07.843Z,2.08
2023-02-01T14:14:18.067Z,2.00
2023-02-01T14:17:22.572Z,2.50
2023-02-01T14:20:46.826Z,2.08
2023-02-01T14:23:54.266Z,2.20
2023-02-01T14:27:02.961Z,2.55
2023-02-01T14:30:16.604Z,2.88
2023-02-01T14:33:27.665Z,2.83
2023-02-01T14:36:51.876Z,2.08
2023-02-01T14:40:03.181Z,2.22
2023-02-01T14:43:08.977Z,3.15
2023-02-01T14:47:07.044Z,2.40
2023-02-01T14:50:23.923Z,3.03
2023-02-01T14:53:35.279Z,3.35
2023-02-01T14:56:43.059Z,3.03
2023-02-01T14:59:47.687Z,2.95
2023-02-01T15:02:54.933Z,3.10
2023-02-01T15:06:01.657Z,2.88
2023-02-01T15:09:12.160Z,2.97
2023-02-01T15:12:32.798Z,2.92
2023-02-01T15:15:38.875Z,2.53
2023-02-01T15:18:43.455Z,1.80
2023-02-01T15:21:51.168Z,3.25
2023-02-01T15:24:57.785Z,1.88
2023-02-01T15:28:02.438Z,1.77
2023-02-01T15:31:07.134Z,2.17
2023-02-01T15:34:15.028Z,2.35
2023-02-01T15:37:23.098Z,2.33
2023-02-01T15:40:28.029Z,1.80
2023-02-01T15:43:37.614Z,1.63
2023-02-01T15:46:50.657Z,1.92
2023-02-01T15:49:57.984Z,1.50
2023-02-01T15:53:02.760Z,1.70
2023-02-01T15:56:07.712Z,2.00
2023-02-01T15:59:18.249Z,2.10
2023-02-01T16:02:39.773Z,2.63
2023-02-01T16:05:45.652Z,1.90
2023-02-01T16:08:54.824Z,1.90
2023-02-01T16:12:01.806Z,2.35
2023-02-01T16:15:06.971Z,1.70
2023-02-01T16:18:12.844Z,1.73
2023-02-01T16:21:17.491Z,2.15
2023-02-01T16:24:23.979Z,2.25
2023-02-01T16:27:28.654Z,2.20
2023-02-01T16:30:34.017Z,1.73
2023-02-01T16:33:38.603Z,1.65
2023-02-01T16:36:43.505Z,1.98
2023-02-01T16:39:48.812Z,1.95
2023-02-01T16:42:56.124Z,1.85
2023-02-01T16:46:03.978Z,1.85
2023-02-01T16:49:19.873Z,2.13
2023-02-01T16:52:25.778Z,1.77
2023-02-01T16:55:30.577Z,1.88
2023-02-01T16:58:35.883Z,1.73
2023-02-01T17:01:42.804Z,1.73
2023-02-01T17:04:49.685Z,1.80
2023-02-01T17:07:54.445Z,1.98
2023-02-01T17:11:00.881Z,1.50
2023-02-01T17:14:20.318Z,2.03
2023-02-01T17:17:38.488Z,1.80
2023-02-01T17:20:44.136Z,1.90
2023-02-01T17:23:48.769Z,1.85
2023-02-01T17:26:53.357Z,2.00
2023-02-01T17:29:57.957Z,1.80
2023-02-01T17:33:20.755Z,1.52
2023-02-01T17:36:26.910Z,1.50
2023-02-01T17:39:49.765Z,3.55
2023-02-01T17:42:57.786Z,1.77
2023-02-01T17:46:12.234Z,1.70
2023-02-01T17:49:16.741Z,1.50
2023-02-01T17:52:21.301Z,2.92
2023-02-01T17:55:27.130Z,1.85
2023-02-01T17:58:33.386Z,1.83
2023-02-01T18:01:40.782Z,1.50
2023-02-01T18:04:45.268Z,1.80
2023-02-01T18:07:49.858Z,1.35
2023-02-01T18:11:00.616Z,2.42
2023-02-01T18:14:05.204Z,1.58
2023-02-01T18:17:09.965Z,1.48
2023-02-01T18:20:16.575Z,1.98
2023-02-01T18:23:23.555Z,1.50
2023-02-01T18:26:28.215Z,1.25
2023-02-01T18:29:32.756Z,1.48
2023-02-01T18:32:37.247Z,1.25
2023-02-01T18:35:41.770Z,1.60
2023-02-01T18:38:46.619Z,1.73
2023-02-01T18:41:51.759Z,1.33
2023-02-01T18:44:56.250Z,1.33
2023-02-01T18:48:05.076Z,1.83
2023-02-01T18:51:17.290Z,1.23
2023-02-01T18:54:21.810Z,1.83
2023-02-01T18:57:26.419Z,2.10
2023-02-01T19:00:30.921Z,1.63
2023-02-01T19:03:40.262Z,1.58
2023-02-01T19:06:47.907Z,1.58
2023-02-01T19:09:52.432Z,1.40
2023-02-01T19:12:57.564Z,1.88
2023-02-01T19:16:10.325Z,2.10
2023-02-01T19:19:14.891Z,1.83
2023-02-01T19:22:20.699Z,1.77
2023-02-01T19:25:27.362Z,2.35
2023-02-01T19:28:31.976Z,1.67
2023-02-01T19:31:36.928Z,1.73
2023-02-01T19:34:41.559Z,1.33
2023-02-01T19:37:48.040Z,1.80
2023-02-01T19:40:54.993Z,1.83
2023-02-01T19:43:59.568Z,2.20
2023-02-01T19:47:04.170Z,2.20
2023-02-01T19:50:10.675Z,2.00
2023-02-01T19:53:15.252Z,1.65
2023-02-01T19:56:19.805Z,1.67
2023-02-01T19:59:24.381Z,1.60
2023-02-01T20:02:30.046Z,2.05
2023-02-01T20:05:34.637Z,1.65
2023-02-01T20:08:39.303Z,2.10
2023-02-01T20:11:44.264Z,1.92
2023-02-01T20:14:48.808Z,1.55
2023-02-01T20:17:53.568Z,1.65
2023-02-01T20:20:58.881Z,2.67
2023-02-01T20:24:04.536Z,2.08
2023-02-01T20:27:10.531Z,2.15
2023-02-01T20:30:19.895Z,2.08
2023-02-01T20:33:27.376Z,1.60
2023-02-01T20:36:32.809Z,2.53
2023-02-01T20:39:37.350Z,1.98
2023-02-01T20:42:41.868Z,1.80
2023-02-01T20:45:49.464Z,2.58
2023-02-01T20:48:53.994Z,2.33
2023-02-01T20:51:59.036Z,2.03
2023-02-01T20:55:03.800Z,3.30
2023-02-01T20:58:08.331Z,1.55
2023-02-01T21:01:13.268Z,1.60
2023-02-01T21:04:22.437Z,1.55
2023-02-01T21:07:27.058Z,2.17
2023-02-01T21:10:31.736Z,2.60
2023-02-01T21:13:42.962Z,1.85
2023-02-01T21:16:48.671Z,2.42
2023-02-01T21:19:53.162Z,1.70
2023-02-01T21:22:57.982Z,2.33
2023-02-01T21:26:03.005Z,1.95
2023-02-01T21:29:10.188Z,2.58
2023-02-01T21:32:14.738Z,2.17
2023-02-01T21:35:19.275Z,2.38
2023-02-01T21:38:24.996Z,1.80
2023-02-01T21:41:49.971Z,2.47
2023-02-01T21:44:55.109Z,1.90
2023-02-01T21:48:01.760Z,2.30
2023-02-01T21:51:09.174Z,2.03
2023-02-01T21:54:13.873Z,1.73
2023-02-01T21:57:18.375Z,1.90
2023-02-01T22:00:23.891Z,1.70
2023-02-01T22:03:29.955Z,1.40
2023-02-01T22:06:41.219Z,2.70
2023-02-01T22:09:45.831Z,1.40
2023-02-01T22:12:50.309Z,2.35
2023-02-01T22:15:55.952Z,2.03
2023-02-01T22:19:00.486Z,1.73
2023-02-01T22:22:05.508Z,1.60
2023-02-01T22:25:10.157Z,1.50
2023-02-01T22:28:30.324Z,1.92
2023-02-01T22:31:37.844Z,4.53
2023-02-01T22:34:42.452Z,2.03
2023-02-01T22:37:47.017Z,3.63
2023-02-01T22:40:58.868Z,2.05
2023-02-01T22:44:03.496Z,2.00
2023-02-01T22:47:09.043Z,2.10
2023-02-01T22:50:14.208Z,1.95
2023-02-01T22:53:19.799Z,1.65
2023-02-01T22:56:32.999Z,2.80
2023-02-01T22:59:37.529Z,2.17
2023-02-01T23:02:43.300Z,1.77
2023-02-01T23:05:49.875Z,2.30
2023-02-01T23:09:11.445Z,1.98
2023-02-01T23:12:16.266Z,2.25
2023-02-01T23:15:20.776Z,1.98
2023-02-01T23:18:26.035Z,2.00
2023-02-01T23:21:30.844Z,2.60
2023-02-01T23:24:35.291Z,2.38
2023-02-01T23:27:39.892Z,1.95
2023-02-01T23:30:44.518Z,2.00
2023-02-01T23:33:49.835Z,2.00
2023-02-01T23:36:54.407Z,1.67
2023-02-01T23:39:58.919Z,2.35
2023-02-01T23:43:22.386Z,1.45
2023-02-01T23:46:31.945Z,1.88
2023-02-01T23:49:36.557Z,1.70
2023-02-01T23:52:41.063Z,2.17
2023-02-01T23:55:45.600Z,1.65
2023-02-01T23:58:51.788Z,1.58
